This is the latest recevied weather packets stored in our database for station/object KG5WBN. If no packets are shown the sender has not sent any weather packets the latest 10 day(s).
| Time | Temp. | Humidity | Pressure | Rain* | Wind** | Luminosity | Snow |
|---|---|---|---|---|---|---|---|
| 1787415951 | 32.22° C | 55% | 1016.3 hPa | 0 mm | - | 307 W/m² | - |
| 1787415651 | 32.22° C | 55% | 1016.3 hPa | 0 mm | - | 305 W/m² | - |
| 1787415346 | 32.78° C | 55% | 1016.3 hPa | 0 mm | - | 298 W/m² | - |
| 1787415041 | 32.78° C | 56% | 1016.3 hPa | 0 mm | - | 300 W/m² | - |
| 1787414738 | 32.22° C | 56% | 1015.9 hPa | 0 mm | - | 294 W/m² | - |
| 1787414432 | 31.67° C | 55% | 1015.6 hPa | 0 mm | - | 289 W/m² | - |
| 1787414131 | 32.22° C | 56% | 1015.9 hPa | 0 mm | - | 287 W/m² | - |
| 1787413825 | 31.67° C | 54% | 1015.9 hPa | 0 mm | - | 281 W/m² | - |
| 1787413521 | 32.22° C | 57% | 1015.9 hPa | 0 mm | - | 281 W/m² | - |
| 1787413215 | 31.11° C | 58% | 1015.9 hPa | 0 mm | - | 272 W/m² | - |
| 1787412912 | 31.11° C | 58% | 1015.9 hPa | 0 mm | - | 265 W/m² | - |
| 1787412606 | 31.67° C | 58% | 1015.6 hPa | 0 mm | - | 260 W/m² | - |
| 1787412301 | 31.11° C | 58% | 1015.6 hPa | 0 mm | - | 253 W/m² | - |
| 1787411997 | 31.11° C | 61% | 1015.6 hPa | 0 mm | - | 236 W/m² | - |
| 1787411694 | 31.11° C | 61% | 1015.6 hPa | 0 mm | - | 234 W/m² | - |
| 1787411389 | 30° C | 64% | 1015.6 hPa | 0 mm | - | 219 W/m² | - |
| 1787411085 | 30° C | 68% | 1015.6 hPa | 0 mm | - | 213 W/m² | - |
| 1787410780 | 28.89° C | 91% | 1015.6 hPa | 0 mm | - | 202 W/m² | - |
| 1787410476 | 28.33° C | 99% | 1015.6 hPa | 0 mm | - | 181 W/m² | - |
| 1787410171 | 27.78° C | 99% | 1015.6 hPa | 0 mm | - | 190 W/m² | - |
| 1787409868 | 27.22° C | 99% | 1015.6 hPa | 0 mm | - | 181 W/m² | - |
| 1787409563 | 27.22° C | 99% | 1015.9 hPa | 0 mm | - | 172 W/m² | - |
| 1787409259 | 26.67° C | 99% | 1015.6 hPa | 0 mm | - | 160 W/m² | - |
| 1787408955 | 25.56° C | 99% | 1015.6 hPa | 0 mm | - | 95 W/m² | - |
| 1787408650 | 27.22° C | 99% | 1015.9 hPa | 0 mm | - | 142 W/m² | - |
* Rain latest hour (hover to see other rain measurements)
** Current wind speed in m/s (hover to see current wind gust speed)